Galien, MI (49113)

5:04 AM EDT on August 28, 2015 (GMT -0400)
Life Action Camp | | Change Station
CLOSE
Current Station
Personal Weather Station
Location: Buchanan, MI
Elevation: 755 ft
Nearby Weather Stations

Elev 755 ft 41.83 °N, 86.42 °W | Updated 7 seconds ago

Clear
Clear
55.4 °F
Feels Like 55.4 °F
N
2.2
Wind Variable Wind from East
Gusts 2.2 mph

Today
High -- | Low -- °F
--% Chance of Precip.
Yesterday
High -- | Low -- °F
Precip. -- in
7:07 AM 8:26 PM
Waxing Gibbous, 97% visible
Pressure 30.17 in
Visibility 8.0 miles
Clouds Clear
Dew Point 55 °F
Humidity 99%
Rainfall 0.00 in
Snow Depth Not available.
UV 0 out of 12
Pollen 9.70 out of 12
Air Quality Not available.
Flu Activity Not available.
METAR KSBN 280854Z AUTO 00000KT 8SM CLR 13/12 A3017 RMK AO2 SLP214 T01280117 55000 TSNO
Pressure 30.17 in
Visibility 8.0 miles
Clouds Clear
Dew Point 55 °F
Humidity 99%
Rainfall 0.00 in
Snow Depth Not available.
UV 0 out of 12
Pollen 9.70 out of 12
Air Quality Not available.
Flu Activity Not available.
METAR KSBN 280854Z AUTO 00000KT 8SM CLR 13/12 A3017 RMK AO2 SLP214 T01280117 55000 TSNO

10-Day Weather Forecast

×

Almanac

Astronomy

Aug. 28, 2015 Rise Set
Actual Time
Civil Twilight
Nautical Twilight
Astronomical Twilight
Moon
Length of Visible Light
Length of Day
Tomorrow will be .
, % of the Moon is Illuminated

Today's Extremes

State Highs State Lows

Community

WunderPhotos

Upload Photos

1,850,355 photos uploaded!

WunderBlogs® & News

Nearby

Air Quality

  Air Quality AQ Index Pollutant
Not available.

Snow Depth

Station Depth Elevation

Earthquake Activity

City Distance Mag. Time & Date
Minimum magnitude displayed is 2.5.

Coastal Water Temperatures

Place Temperature

Stations

Nearby Weather Stations

Station Location Temp. Windchill Dew Point Humidity Wind Precip. Elev Updated Type